Time;durP1;ratioP1;P1;durP2;ratioP2;P2;SDS_P1;SDS_P2;PMS_P1;PMS_P2;Temp;Humidity;BMP_temperature;BMP_pressure;BME280_temperature;BME280_humidity;BME280_pressure;Samples;Min_cycle;Max_cycle;Signal;HPM_P1;HPM_P2
2020/02/10 00:00:06;;;;;;;8.9;5;;;;;;;;;;;;;
2020/02/10 00:02:34;;;;;;;6.8;5;;;;;;;;;;;;;
2020/02/10 00:05:02;;;;;;;7.2;5.3;;;;;;;;;;;;;
2020/02/10 00:07:28;;;;;;;8.4;5.1;;;;;;;;;;;;;
2020/02/10 00:09:58;;;;;;;10.4;5.1;;;;;;;;;;;;;
2020/02/10 00:12:24;;;;;;;8.7;5.2;;;;;;;;;;;;;
2020/02/10 00:14:48;;;;;;;9.9;6;;;;;;;;;;;;;
2020/02/10 00:17:34;;;;;;;7.6;5.3;;;;;;;;;;;;;
2020/02/10 00:22:03;;;;;;;7.8;5;;;;;;;;;;;;;
2020/02/10 00:25:22;;;;;;;8.1;5.4;;;;;;;;;;;;;
2020/02/10 00:27:49;;;;;;;8;5.6;;;;;;;;;;;;;
2020/02/10 00:30:13;;;;;;;10.4;5.4;;;;;;;;;;;;;
2020/02/10 00:32:42;;;;;;;12.8;5.4;;;;;;;;;;;;;
2020/02/10 00:35:08;;;;;;;11.8;5.6;;;;;;;;;;;;;
2020/02/10 00:37:31;;;;;;;9.4;5.3;;;;;;;;;;;;;
2020/02/10 00:39:56;;;;;;;7.7;5.3;;;;;;;;;;;;;
2020/02/10 00:42:24;;;;;;;8;5.2;;;;;;;;;;;;;
2020/02/10 00:44:50;;;;;;;8.1;4.9;;;;;;;;;;;;;
2020/02/10 00:47:18;;;;;;;6.7;5;;;;;;;;;;;;;
2020/02/10 00:49:42;;;;;;;8.3;5.1;;;;;;;;;;;;;
2020/02/10 00:52:04;;;;;;;8.8;5.1;;;;;;;;;;;;;
2020/02/10 00:54:30;;;;;;;8.1;5.2;;;;;;;;;;;;;
2020/02/10 00:56:54;;;;;;;7.9;4.7;;;;;;;;;;;;;
2020/02/10 00:59:23;;;;;;;7.9;4.8;;;;;;;;;;;;;
2020/02/10 01:01:46;;;;;;;6.8;4.6;;;;;;;;;;;;;
2020/02/10 01:04:14;;;;;;;11.4;4.9;;;;;;;;;;;;;
2020/02/10 01:06:44;;;;;;;8.1;5.2;;;;;;;;;;;;;
2020/02/10 01:09:06;;;;;;;9.8;5.6;;;;;;;;;;;;;
2020/02/10 01:11:35;;;;;;;9.5;5.3;;;;;;;;;;;;;
2020/02/10 01:14:02;;;;;;;10;5.2;;;;;;;;;;;;;
2020/02/10 01:16:24;;;;;;;8.8;5.8;;;;;;;;;;;;;
2020/02/10 01:18:48;;;;;;;7.6;4.8;;;;;;;;;;;;;
2020/02/10 01:21:19;;;;;;;8;5.2;;;;;;;;;;;;;
2020/02/10 01:23:46;;;;;;;10.1;5.4;;;;;;;;;;;;;
2020/02/10 01:26:15;;;;;;;8.1;5.5;;;;;;;;;;;;;
2020/02/10 01:28:41;;;;;;;9.1;5.4;;;;;;;;;;;;;
2020/02/10 01:31:10;;;;;;;8.2;6.2;;;;;;;;;;;;;
2020/02/10 01:33:34;;;;;;;10.1;5.9;;;;;;;;;;;;;
2020/02/10 01:35:57;;;;;;;9.1;6.6;;;;;;;;;;;;;
2020/02/10 01:38:30;;;;;;;10.3;6.6;;;;;;;;;;;;;
2020/02/10 01:40:51;;;;;;;10.7;6.7;;;;;;;;;;;;;
2020/02/10 01:45:47;;;;;;;10.8;6.7;;;;;;;;;;;;;
2020/02/10 01:48:07;;;;;;;10;6.8;;;;;;;;;;;;;
2020/02/10 01:50:32;;;;;;;8.8;6.4;;;;;;;;;;;;;
2020/02/10 01:52:55;;;;;;;8.2;5.9;;;;;;;;;;;;;
2020/02/10 01:55:20;;;;;;;8.9;6.4;;;;;;;;;;;;;
2020/02/10 01:57:50;;;;;;;8.5;6.4;;;;;;;;;;;;;
2020/02/10 02:00:11;;;;;;;8.8;6.5;;;;;;;;;;;;;
2020/02/10 02:02:42;;;;;;;10.2;6.2;;;;;;;;;;;;;
2020/02/10 02:05:08;;;;;;;9.6;5.8;;;;;;;;;;;;;
2020/02/10 02:07:34;;;;;;;8.5;5.8;;;;;;;;;;;;;
2020/02/10 02:09:59;;;;;;;7.7;5.1;;;;;;;;;;;;;
2020/02/10 02:12:28;;;;;;;10.9;5.6;;;;;;;;;;;;;
2020/02/10 02:14:50;;;;;;;8.7;5.5;;;;;;;;;;;;;
2020/02/10 02:17:15;;;;;;;9.5;5.6;;;;;;;;;;;;;
2020/02/10 02:19:43;;;;;;;8.8;5.3;;;;;;;;;;;;;
2020/02/10 02:22:09;;;;;;;7.9;5.9;;;;;;;;;;;;;
2020/02/10 02:24:38;;;;;;;8.7;5.5;;;;;;;;;;;;;
2020/02/10 02:29:36;;;;;;;7.7;5.7;;;;;;;;;;;;;
2020/02/10 02:40:24;;;;;;;7.6;5.8;;;;;;;;;;;;;
2020/02/10 02:42:49;;;;;;;8.3;5.3;;;;;;;;;;;;;
2020/02/10 02:45:12;;;;;;;7.5;5.2;;;;;;;;;;;;;
2020/02/10 02:47:38;;;;;;;9.1;5.1;;;;;;;;;;;;;
2020/02/10 02:50:02;;;;;;;7.9;4.4;;;;;;;;;;;;;
2020/02/10 02:52:31;;;;;;;7.2;4.6;;;;;;;;;;;;;
2020/02/10 02:54:55;;;;;;;7.3;4.2;;;;;;;;;;;;;
2020/02/10 02:57:26;;;;;;;8.1;4.7;;;;;;;;;;;;;
2020/02/10 02:59:51;;;;;;;7.2;4.7;;;;;;;;;;;;;
2020/02/10 03:02:20;;;;;;;7.7;4.1;;;;;;;;;;;;;
2020/02/10 03:04:47;;;;;;;7.5;4.2;;;;;;;;;;;;;
2020/02/10 03:07:15;;;;;;;5.9;4.1;;;;;;;;;;;;;
2020/02/10 03:09:40;;;;;;;6.6;4.2;;;;;;;;;;;;;
2020/02/10 03:12:03;;;;;;;6.9;3.9;;;;;;;;;;;;;
2020/02/10 03:14:29;;;;;;;6.6;3.9;;;;;;;;;;;;;
2020/02/10 03:16:55;;;;;;;7;4;;;;;;;;;;;;;
2020/02/10 03:19:21;;;;;;;7.1;4.1;;;;;;;;;;;;;
2020/02/10 03:21:46;;;;;;;7.2;4;;;;;;;;;;;;;
2020/02/10 03:24:15;;;;;;;8.1;4.1;;;;;;;;;;;;;
2020/02/10 03:26:38;;;;;;;7.8;4.2;;;;;;;;;;;;;
2020/02/10 03:29:03;;;;;;;7.1;4.2;;;;;;;;;;;;;
2020/02/10 03:31:30;;;;;;;6.9;3.8;;;;;;;;;;;;;
2020/02/10 03:33:53;;;;;;;5.4;3.7;;;;;;;;;;;;;
2020/02/10 03:36:21;;;;;;;5.5;3.8;;;;;;;;;;;;;
2020/02/10 03:38:50;;;;;;;8.5;3.9;;;;;;;;;;;;;
2020/02/10 03:41:23;;;;;;;6;3.6;;;;;;;;;;;;;
2020/02/10 03:43:48;;;;;;;12.5;3.9;;;;;;;;;;;;;
2020/02/10 03:46:16;;;;;;;6.1;3.4;;;;;;;;;;;;;
2020/02/10 03:48:45;;;;;;;7.3;3.3;;;;;;;;;;;;;
2020/02/10 03:51:03;;;;;;;6.3;3.3;;;;;;;;;;;;;
2020/02/10 03:53:29;;;;;;;11.2;4.2;;;;;;;;;;;;;
2020/02/10 03:55:54;;;;;;;7;3.8;;;;;;;;;;;;;
2020/02/10 03:58:20;;;;;;;5.2;3.1;;;;;;;;;;;;;
2020/02/10 04:02:59;;;;;;;8.8;3.6;;;;;;;9.4;52.46191;925.808;;;;
2020/02/10 04:05:18;;;;;;;7.3;3;;;;;;;9.25;53.02441;925.9995;;;;
2020/02/10 04:08:14;;;;;;;5.6;2.9;;;;;;;9.34;52.70605;925.9315;;;;
2020/02/10 04:10:38;;;;;;;5.3;2.7;;;;;;;9.11;53.57617;926.0778;;;;
2020/02/10 04:13:10;;;;;;;4.8;2.7;;;;;;;9.24;53.21777;925.8741;;;;
2020/02/10 04:15:39;;;;;;;7.9;2.9;;;;;;;9.3;53.55566;925.8705;;;;
2020/02/10 04:21:01;;;;;;;10.8;3.2;;;;;;;9.29;53.45117;925.7308;;;;
2020/02/10 04:23:23;;;;;;;5.5;2.3;;;;;;;9.1;54.71289;925.7173;;;;
2020/02/10 04:26:00;;;;;;;3.2;2.3;;;;;;;8.81;54.38086;925.6875;;;;
2020/02/10 04:31:00;;;;;;;4.4;2.7;;;;;;;8.78;53.87598;925.585;;;;
2020/02/10 04:36:35;;;;;;;5.1;2.1;;;;;;;8.91;54.83691;925.4752;;;;
2020/02/10 04:38:28;;;;;;;4.7;2.3;;;;;;;8.82;54.49707;925.3066;;;;
2020/02/10 04:41:14;;;;;;;3.8;2.3;;;;;;;8.75;53.65625;925.363;;;;
2020/02/10 04:43:24;;;;;;;5.1;2.5;;;;;;;8.97;52.04688;925.1637;;;;
2020/02/10 04:46:06;;;;;;;10.4;2.9;;;;;;;9.09;52.48145;925.226;;;;
2020/02/10 04:48:32;;;;;;;4.5;2.4;;;;;;;9.15;52.55762;925.0366;;;;
2020/02/10 04:51:09;;;;;;;4.6;2.5;;;;;;;9.05;51.35059;925.1436;;;;
2020/02/10 04:53:41;;;;;;;6.6;2.6;;;;;;;9.11;52.58594;925.117;;;;
2020/02/10 04:56:09;;;;;;;5.1;2.5;;;;;;;9.25;52.43457;924.9964;;;;
2020/02/10 04:58:55;;;;;;;4.9;2.6;;;;;;;9.23;51.17871;924.8059;;;;
2020/02/10 05:01:36;;;;;;;7.1;2.3;;;;;;;9.13;52.82813;924.916;;;;
2020/02/10 05:04:10;;;;;;;3.8;2.4;;;;;;;9.08;52.26465;924.7472;;;;
2020/02/10 05:06:27;;;;;;;5;2.8;;;;;;;9.09;52.5498;924.7766;;;;
2020/02/10 05:08:59;;;;;;;4.7;2.7;;;;;;;9.04;52.83887;924.4625;;;;
2020/02/10 05:11:31;;;;;;;6;2.4;;;;;;;8.94;53.48633;924.5106;;;;
2020/02/10 05:13:58;;;;;;;4.7;2.4;;;;;;;8.76;54.27148;924.4392;;;;
2020/02/10 05:16:24;;;;;;;4.8;2.1;;;;;;;8.55;55.37109;924.5441;;;;
2020/02/10 05:18:55;;;;;;;4.8;2.1;;;;;;;8.45;55.24414;924.4811;;;;
2020/02/10 05:21:24;;;;;;;8.9;2.9;;;;;;;8.44;55.37988;924.5217;;;;
2020/02/10 05:23:58;;;;;;;4.1;2.4;;;;;;;8.46;54.93848;924.4764;;;;
2020/02/10 05:26:32;;;;;;;7.3;2.7;;;;;;;8.53;55.36816;924.2896;;;;
2020/02/10 05:29:08;;;;;;;4.4;1.9;;;;;;;8.28;55.9834;924.23;;;;
2020/02/10 05:31:37;;;;;;;2.6;1.7;;;;;;;8.13;56.71387;924.4152;;;;
2020/02/10 05:34:09;;;;;;;6.1;2;;;;;;;8.04;56.54199;924.0517;;;;
2020/02/10 05:37:11;;;;;;;4.6;2.3;;;;;;;8.13;56.86133;923.9902;;;;
2020/02/10 05:39:20;;;;;;;3.8;2;;;;;;;7.91;58.18164;923.9053;;;;
2020/02/10 05:41:47;;;;;;;5.1;2.6;;;;;;;7.91;57.02441;924.063;;;;
2020/02/10 05:44:12;;;;;;;7;2.8;;;;;;;7.89;56.7627;924.0408;;;;
2020/02/10 05:47:18;;;;;;;7;2.8;;;;;;;7.92;57.43457;923.8308;;;;
2020/02/10 05:49:43;;;;;;;5.9;2.6;;;;;;;7.82;57.75;923.9786;;;;
2020/02/10 05:52:10;;;;;;;4.2;2.6;;;;;;;7.77;57.22168;923.942;;;;
2020/02/10 05:54:36;;;;;;;3.5;2.5;;;;;;;7.99;56.32031;923.8344;;;;
2020/02/10 05:57:04;;;;;;;5.1;3.3;;;;;;;8.12;55.47363;923.8706;;;;
2020/02/10 05:59:38;;;;;;;4.8;2.3;;;;;;;8.03;56.53027;924.0905;;;;
2020/02/10 06:02:05;;;;;;;3.3;2.2;;;;;;;8.05;56.8291;923.6275;;;;
2020/02/10 06:04:34;;;;;;;19.7;3.3;;;;;;;7.89;57.01074;923.5804;;;;
2020/02/10 06:07:00;;;;;;;12.4;3.3;;;;;;;7.77;57.04004;923.8176;;;;
2020/02/10 06:09:33;;;;;;;7.6;3.1;;;;;;;7.94;56.23438;923.5517;;;;
2020/02/10 06:12:12;;;;;;;5.8;2.8;;;;;;;7.99;55.25293;923.3755;;;;
2020/02/10 06:14:44;;;;;;;3.9;2.7;;;;;;;7.95;56.75781;923.5105;;;;
2020/02/10 06:17:22;;;;;;;5.1;2.5;;;;;;;7.92;55.99414;923.1714;;;;
2020/02/10 06:19:46;;;;;;;5;2.8;;;;;;;7.78;56.44043;923.3747;;;;
2020/02/10 06:22:18;;;;;;;9.9;3.3;;;;;;;7.93;56.18848;923.4567;;;;
2020/02/10 06:24:38;;;;;;;4.4;2.7;;;;;;;7.9;56.61426;923.399;;;;
2020/02/10 06:27:10;;;;;;;4.1;2.6;;;;;;;8.04;53.5918;923.2369;;;;
2020/02/10 06:30:22;;;;;;;4.3;2.4;;;;;;;8.37;54.0752;923.3987;;;;
2020/02/10 06:37:12;;;;;;;4.5;2.6;;;;;;;8.56;53.15527;923.4517;;;;
2020/02/10 06:42:09;;;;;;;4.3;2.3;;;;;;;8.66;52.50977;923.2711;;;;
2020/02/10 06:46:11;;;;;;;12.1;2.8;;;;;;;8.87;52.77246;923.4006;;;;
2020/02/10 06:47:19;;;;;;;6.7;2.6;;;;;;;8.91;52.37012;923.6138;;;;
2020/02/10 06:49:27;;;;;;;6.6;2.3;;;;;;;9.08;52.08203;923.5667;;;;
2020/02/10 06:51:57;;;;;;;12.3;2.6;;;;;;;9.18;50.84277;923.267;;;;
2020/02/10 06:59:25;;;;;;;5.9;2.5;;;;;;;9.32;50.24414;923.3478;;;;
2020/02/10 07:01:58;;;;;;;24.4;3.6;;;;;;;9.5;49.79785;923.0959;;;;
2020/02/10 07:07:05;;;;;;;12.9;3.6;;;;;;;9.63;50.16602;923.6534;;;;
2020/02/10 07:11:59;;;;;;;5.4;2.2;;;;;;;9.4;49.99219;923.5082;;;;
2020/02/10 07:21:28;;;;;;;5.9;2.8;;;;;;;10.15;49.06348;923.7194;;;;
2020/02/10 07:26:36;;;;;;;4.7;2.4;;;;;;;9.86;50.06738;924.0056;;;;
2020/02/10 07:34:18;;;;;;;5.5;3.2;;;;;;;10.14;50.63574;924.2405;;;;
2020/02/10 07:36:45;;;;;;;7.1;3.3;;;;;;;10.03;51.19336;923.5928;;;;
2020/02/10 07:44:18;;;;;;;6.8;2.3;;;;;;;9.54;49.38086;923.4506;;;;
2020/02/10 07:49:23;;;;;;;10.2;2.7;;;;;;;9.81;50.55176;924.1541;;;;
2020/02/10 07:52:06;;;;;;;7.8;3.6;;;;;;;9.98;48.79297;924.3803;;;;
2020/02/10 07:56:43;;;;;;;7.9;3.1;;;;;;;10.25;48.60742;923.9454;;;;
2020/02/10 07:59:20;;;;;;;9.4;4.2;;;;;;;10.32;50.13184;923.9319;;;;
2020/02/10 08:03:30;;;;;;;28;12.8;;;;;;;10.31;51.00977;924.0401;;;;
2020/02/10 08:05:43;;;;;;;8.9;5.9;;;;;;;10.36;50.70801;924.0697;;;;
2020/02/10 08:08:36;;;;;;;7.9;4.2;;;;;;;10.49;50.66699;923.9871;;;;
2020/02/10 08:10:57;;;;;;;3.9;2.8;;;;;;;10.66;48.8584;923.9109;;;;
2020/02/10 08:13:27;;;;;;;5.3;3.1;;;;;;;10.43;51.5498;923.6075;;;;
2020/02/10 08:16:32;;;;;;;6.4;2.4;;;;;;;10.32;52.1748;923.9692;;;;
2020/02/10 08:20:46;;;;;;;3.4;1.9;;;;;;;10.16;52.22363;923.8234;;;;
2020/02/10 08:23:12;;;;;;;5.8;2;;;;;;;10.46;51.75684;923.6303;;;;
2020/02/10 08:46:15;;;;;;;2.2;0.7;;;;;;;13.61;36.72754;924.5705;;;;
2020/02/10 08:48:50;;;;;;;2.7;0.4;;;;;;;14.48;33.88477;924.5159;;;;
2020/02/10 08:51:29;;;;;;;1.5;0.5;;;;;;;14.89;32.89063;923.9327;;;;
2020/02/10 08:53:40;;;;;;;1.4;0.7;;;;;;;15.38;32.18848;924.586;;;;
2020/02/10 08:59:02;;;;;;;0.7;0.2;;;;;;;15.97;30.69434;923.9662;;;;
2020/02/10 09:06:44;;;;;;;0.4;0.2;;;;;;;16.17;29.73633;924.5619;;;;
2020/02/10 09:08:48;;;;;;;0.7;0.6;;;;;;;16.04;31.69336;924.6844;;;;
2020/02/10 09:11:46;;;;;;;0.6;0.2;;;;;;;15.81;30.49805;925.3392;;;;
2020/02/10 09:27:11;;;;;;;2.7;0.7;;;;;;;15.56;36.0127;925.0158;;;;
2020/02/10 09:31:47;;;;;;;4.1;0.7;;;;;;;15.2;36.15625;924.8289;;;;
2020/02/10 09:34:08;;;;;;;2.1;0.6;;;;;;;15.37;35.50195;924.7693;;;;
2020/02/10 09:36:21;;;;;;;0.4;0.4;;;;;;;15.58;35.25195;924.6909;;;;
2020/02/10 09:41:44;;;;;;;1.7;0.9;;;;;;;15.83;33.89746;924.772;;;;
2020/02/10 09:47:06;;;;;;;2.3;0.5;;;;;;;15.82;36.54395;924.9216;;;;
2020/02/10 09:49:26;;;;;;;0.6;0.4;;;;;;;15.74;33.70508;925.4217;;;;
2020/02/10 09:55:30;;;;;;;0.4;0.2;;;;;;;15.57;36.18652;925.5587;;;;
2020/02/10 09:56:47;;;;;;;0.7;0.2;;;;;;;15.56;36.66016;925.688;;;;
2020/02/10 10:02:17;;;;;;;1.5;0.4;;;;;;;15.46;37.06738;925.817;;;;
2020/02/10 10:04:45;;;;;;;2.3;0.4;;;;;;;15.4;36.87793;926.0109;;;;
2020/02/10 10:10:01;;;;;;;1;0.3;;;;;;;15.35;36.80371;925.8864;;;;
2020/02/10 10:14:59;;;;;;;2.5;0.4;;;;;;;14.71;43.5625;926.0034;;;;
2020/02/10 10:17:37;;;;;;;1.3;0.5;;;;;;;14.81;43.81641;926.0809;;;;
2020/02/10 10:20:21;;;;;;;3.7;1.5;;;;;;;14.81;44.32324;926.2762;;;;
2020/02/10 10:22:32;;;;;;;1.8;0.7;;;;;;;14.74;44.41992;926.2966;;;;
2020/02/10 10:25:28;;;;;;;3.7;0.6;;;;;;;14;45.50684;925.9954;;;;
2020/02/10 10:35:48;;;;;;;0.4;0.3;;;;;;;13.03;51.50391;926.5983;;;;
2020/02/10 10:37:52;;;;;;;1.2;0.7;;;;;;;13.13;51.37793;926.5733;;;;
2020/02/10 10:43:49;;;;;;;6.4;3.6;;;;;;;12.36;55.82715;927.4854;;;;
2020/02/10 10:48:42;;;;;;;0.6;0.3;;;;;;;12.31;57.23047;927.7816;;;;
2020/02/10 10:54:29;;;;;;;2.4;1;;;;;;;11.99;57.9668;928.8056;;;;
2020/02/10 11:00:00;;;;;;;2;0.4;;;;;;;11.84;63.15723;928.801;;;;
2020/02/10 11:05:39;;;;;;;1.2;0.2;;;;;;;11.34;65.43066;928.8677;;;;
2020/02/10 11:07:22;;;;;;;0.6;0.3;;;;;;;11.29;66.68066;929.1272;;;;
2020/02/10 11:12:56;;;;;;;0.6;0.2;;;;;;;11.21;68.31348;929.0908;;;;
2020/02/10 11:17:37;;;;;;;3.1;0.9;;;;;;;11;69.3457;929.3478;;;;
2020/02/10 11:19:57;;;;;;;2.1;1;;;;;;;11;70.22559;929.3239;;;;
2020/02/10 11:24:56;;;;;;;7.3;3.1;;;;;;;10.4;73.81445;929.6567;;;;
2020/02/10 11:32:33;;;;;;;5.3;1.8;;;;;;;9.67;78.97852;929.7902;;;;
2020/02/10 11:35:06;;;;;;;2.5;0.8;;;;;;;9.15;79.06445;929.7886;;;;
2020/02/10 11:44:56;;;;;;;1.8;0.7;;;;;;;8.85;79.7832;929.8331;;;;
2020/02/10 11:52:49;;;;;;;3.8;1.6;;;;;;;8.94;80.94727;930.1922;;;;
2020/02/10 11:55:30;;;;;;;1.4;0.7;;;;;;;9.23;81.11523;930.0598;;;;
2020/02/10 11:57:56;;;;;;;11.4;5.7;;;;;;;9.55;80.52832;930.0959;;;;
2020/02/10 12:13:43;;;;;;;1.3;0.8;;;;;;;9.13;81.91797;930.4462;;;;
2020/02/10 12:18:14;;;;;;;7.4;4.5;;;;;;;8.96;80.34766;930.5987;;;;
2020/02/10 12:20:34;;;;;;;1.2;0.8;;;;;;;8.75;78.91016;930.5167;;;;
2020/02/10 12:26:03;;;;;;;1.9;0.6;;;;;;;8.88;78.77539;929.5927;;;;
2020/02/10 12:31:15;;;;;;;2.9;2.3;;;;;;;8.96;79.83691;929.7722;;;;
2020/02/10 12:33:11;;;;;;;4.1;3.7;;;;;;;9.07;81.04199;929.7782;;;;
2020/02/10 12:35:21;;;;;;;3.5;1.3;;;;;;;9.06;81.23047;929.9219;;;;
2020/02/10 12:38:06;;;;;;;4;2.3;;;;;;;9.11;81.29785;930.1531;;;;
2020/02/10 12:41:13;;;;;;;18.7;12.4;;;;;;;8.84;82.22461;930.5284;;;;
2020/02/10 12:43:53;;;;;;;5.2;3.1;;;;;;;8.77;82.83691;930.6113;;;;
2020/02/10 12:46:17;;;;;;;2.6;1.6;;;;;;;8.72;83.24805;930.8619;;;;
2020/02/10 12:48:38;;;;;;;2.9;1.7;;;;;;;8.57;79.70898;931.1814;;;;
2020/02/10 12:55:06;;;;;;;2.7;0.6;;;;;;;8.49;80.23926;931.0723;;;;
2020/02/10 12:56:28;;;;;;;1.7;0.6;;;;;;;8.44;80.42383;931.1974;;;;
2020/02/10 13:06:17;;;;;;;1.7;0.7;;;;;;;8.86;80.5127;930.8342;;;;
2020/02/10 13:14:07;;;;;;;3.5;1.7;;;;;;;9.13;80.0166;930.6511;;;;
2020/02/10 13:16:27;;;;;;;1.3;0.6;;;;;;;8.87;78.1377;931.139;;;;
2020/02/10 13:27:12;;;;;;;0.9;0.4;;;;;;;8.78;75.05078;930.6129;;;;
2020/02/10 13:35:05;;;;;;;2.4;0.5;;;;;;;8.75;75.4541;931.2151;;;;
2020/02/10 13:40:51;;;;;;;2.8;0.9;;;;;;;9.04;76.83691;931.5028;;;;
2020/02/10 13:45:41;;;;;;;3.9;1.5;;;;;;;8.41;77.71289;931.8898;;;;
2020/02/10 13:55:26;;;;;;;3.2;0.9;;;;;;;8.56;71.96484;931.9971;;;;
2020/02/10 13:57:40;;;;;;;6.1;4.3;;;;;;;8.32;73.37988;931.8814;;;;
2020/02/10 14:00:22;;;;;;;3.3;1.8;;;;;;;8.21;74.39453;932.139;;;;
2020/02/10 14:02:54;;;;;;;2.4;0.9;;;;;;;7.93;73.2002;932.1552;;;;
2020/02/10 14:07:50;;;;;;;3;0.8;;;;;;;8.18;66.74805;932.3733;;;;
2020/02/10 14:10:34;;;;;;;5.3;1.4;;;;;;;8.09;66.71094;932.145;;;;
2020/02/10 14:17:13;;;;;;;5.4;1.8;;;;;;;8.57;66.0791;931.9202;;;;
2020/02/10 14:20:32;;;;;;;5.8;1.9;;;;;;;8.89;64.40039;932.1584;;;;
2020/02/10 14:25:56;;;;;;;6.6;1.7;;;;;;;8.75;65.94824;932.2352;;;;
2020/02/10 14:28:23;;;;;;;5.2;1.7;;;;;;;8.5;70.05859;932.0578;;;;
2020/02/10 14:31:07;;;;;;;4.5;1.3;;;;;;;8.53;74.3584;932.1469;;;;
2020/02/10 14:33:17;;;;;;;5.6;1.7;;;;;;;8.51;77.10547;932.1951;;;;
2020/02/10 14:35:51;;;;;;;8.3;2;;;;;;;8.4;72.41699;932.1964;;;;
2020/02/10 14:42:51;;;;;;;7.4;1.8;;;;;;;8.58;64.52539;932.2131;;;;
2020/02/10 14:44:27;;;;;;;5.5;1.3;;;;;;;8.5;61.60352;932.3006;;;;
2020/02/10 14:46:35;;;;;;;7.5;2.5;;;;;;;8.52;65.0498;932.3998;;;;
2020/02/10 14:49:30;;;;;;;7.6;3.1;;;;;;;8.65;66.44434;932.1987;;;;
2020/02/10 15:07:12;;;;;;;5.8;1.5;;;;;;;8.51;58.13965;931.5247;;;;
2020/02/10 15:13:16;;;;;;;4;1.3;;;;;;;8.78;61.65527;931.9139;;;;
2020/02/10 15:32:55;;;;;;;8.6;2.2;;;;;;;7.98;63.1875;931.6459;;;;
2020/02/10 15:35:31;;;;;;;11.9;3.8;;;;;;;8.22;66.91113;931.5999;;;;
2020/02/10 15:40:12;;;;;;;11;3;;;;;;;8.14;69.5459;931.7203;;;;
2020/02/10 15:50:19;;;;;;;7;1.9;;;;;;;7.78;69.32813;931.5844;;;;
2020/02/10 15:58:32;;;;;;;20.1;9;;;;;;;7.25;75.90527;931.6997;;;;
2020/02/10 16:00:45;;;;;;;13.4;3.2;;;;;;;7.2;75.58008;931.71;;;;
2020/02/10 16:02:47;;;;;;;21.1;8.9;;;;;;;7.02;74.46094;931.6272;;;;
2020/02/10 16:05:28;;;;;;;12.2;4.7;;;;;;;6.91;74.53223;931.5599;;;;
2020/02/10 16:08:12;;;;;;;24.8;11.6;;;;;;;7.01;74.87793;931.6841;;;;
2020/02/10 16:12:53;;;;;;;8.2;2.7;;;;;;;7.26;75.9873;931.5297;;;;
2020/02/10 16:18:05;;;;;;;15.8;6.6;;;;;;;7.57;75.11328;931.4601;;;;
2020/02/10 16:28:26;;;;;;;13.1;4.4;;;;;;;7.28;75.97754;931.548;;;;
2020/02/10 16:30:49;;;;;;;11.1;4.6;;;;;;;7.22;76.55762;931.3209;;;;
2020/02/10 16:33:21;;;;;;;12.1;2.6;;;;;;;7.17;74.26074;931.3756;;;;
2020/02/10 16:35:48;;;;;;;10.9;2.6;;;;;;;7.18;74.11523;931.4138;;;;
2020/02/10 16:38:56;;;;;;;9.1;2.7;;;;;;;7.31;75.62305;931.4922;;;;
2020/02/10 16:40:59;;;;;;;10.6;3.5;;;;;;;7.21;76.7373;931.2172;;;;
2020/02/10 16:43:28;;;;;;;11.2;3.8;;;;;;;6.94;77.83203;931.2745;;;;
2020/02/10 16:45:57;;;;;;;9.1;3.6;;;;;;;7.04;78.56348;931.4144;;;;
2020/02/10 16:48:25;;;;;;;13.7;7.6;;;;;;;6.9;79.2959;931.358;;;;
2020/02/10 16:51:00;;;;;;;13.6;3;;;;;;;5.95;79.99023;931.3484;;;;
2020/02/10 16:53:24;;;;;;;22.2;9.4;;;;;;;6.1;80.38086;931.2687;;;;
2020/02/10 16:55:57;;;;;;;18.2;6.9;;;;;;;6.21;81.99414;931.3086;;;;
2020/02/10 16:58:31;;;;;;;16.8;6;;;;;;;6.47;80.58594;931.3797;;;;
2020/02/10 17:00:59;;;;;;;17.2;5.4;;;;;;;6.58;79.97266;930.9816;;;;
2020/02/10 17:03:36;;;;;;;20.6;9.2;;;;;;;6.76;79.61035;931.03;;;;
2020/02/10 17:06:13;;;;;;;19.1;9;;;;;;;6.89;79.12598;931.1845;;;;
2020/02/10 17:08:41;;;;;;;11.3;4.2;;;;;;;6.77;80.74316;931.1267;;;;
2020/02/10 17:11:10;;;;;;;14.8;4.6;;;;;;;6.44;81.65332;930.976;;;;
2020/02/10 17:13:36;;;;;;;13;4.4;;;;;;;6.48;79.84082;931.0327;;;;
2020/02/10 17:16:10;;;;;;;18.8;7;;;;;;;6.65;79.49805;931.0967;;;;
2020/02/10 17:18:36;;;;;;;19.2;9.8;;;;;;;6.69;80.20801;930.7927;;;;
2020/02/10 17:21:09;;;;;;;13.7;4.1;;;;;;;6.56;77.70703;930.5259;;;;
2020/02/10 17:23:40;;;;;;;13.5;5.1;;;;;;;6.46;80.19922;930.8078;;;;
2020/02/10 17:26:22;;;;;;;12.5;4.6;;;;;;;6.51;80.76172;930.8535;;;;
2020/02/10 17:28:52;;;;;;;13.6;4.3;;;;;;;6.69;80.25293;930.9794;;;;
2020/02/10 17:31:23;;;;;;;11.5;3.9;;;;;;;6.67;80.01367;930.6138;;;;
2020/02/10 17:34:00;;;;;;;12.9;5;;;;;;;6.48;80.84766;930.5645;;;;
2020/02/10 17:36:30;;;;;;;12.1;3.9;;;;;;;6.24;81.75293;930.6395;;;;
2020/02/10 17:39:13;;;;;;;10.2;4;;;;;;;6.22;82.0752;930.4187;;;;
2020/02/10 17:41:47;;;;;;;34.7;18.9;;;;;;;6.36;81.73926;930.7422;;;;
2020/02/10 17:44:23;;;;;;;15.9;4.9;;;;;;;6.31;81.03027;930.7581;;;;
2020/02/10 17:47:05;;;;;;;16.2;6.4;;;;;;;6.58;80.53809;930.829;;;;
2020/02/10 17:49:38;;;;;;;17.8;8.1;;;;;;;6.65;80.37988;930.978;;;;
2020/02/10 18:02:11;;;;;;;18.8;7.7;;;;;;;6.42;80.89258;931.2208;;;;
2020/02/10 18:04:47;;;;;;;18.4;6.5;;;;;;;6.45;80.43359;931.0789;;;;
2020/02/10 18:07:00;;;;;;;14.2;7.3;;;;;;;6.29;80.70996;931.014;;;;
2020/02/10 18:09:28;;;;;;;19.6;8.2;;;;;;;6.51;80.49023;930.9436;;;;
2020/02/10 18:12:41;;;;;;;20.5;9.5;;;;;;;6.52;81.4541;930.7983;;;;
2020/02/10 18:19:51;;;;;;;23.2;9.5;;;;;;;6.37;78.9375;930.0916;;;;
2020/02/10 18:22:31;;;;;;;27.4;11.6;;;;;;;6.26;80.22852;930.1378;;;;
2020/02/10 18:27:29;;;;;;;22.6;8.6;;;;;;;6.42;81.33496;930.1882;;;;
2020/02/10 18:35:28;;;;;;;21.1;9.5;;;;;;;6.27;81.97266;930.2067;;;;
2020/02/10 18:37:44;;;;;;;27.4;10.3;;;;;;;6.41;81.13965;930.3248;;;;
2020/02/10 18:40:47;;;;;;;28;10.9;;;;;;;6.64;80.29004;930.1933;;;;
2020/02/10 18:43:18;;;;;;;21.2;8.7;;;;;;;6.68;80.00195;930.1573;;;;
2020/02/10 18:46:15;;;;;;;19.7;8.3;;;;;;;6.57;80.42383;930.1409;;;;
2020/02/10 18:48:34;;;;;;;18.9;7.2;;;;;;;6.69;79.59668;929.9313;;;;
2020/02/10 18:51:00;;;;;;;18.6;8.3;;;;;;;6.66;80.42871;929.9562;;;;
2020/02/10 18:53:32;;;;;;;22.6;10.6;;;;;;;6.77;78.54785;929.9969;;;;
2020/02/10 18:56:02;;;;;;;19.9;9.5;;;;;;;6.98;78.4043;929.7911;;;;
2020/02/10 18:58:27;;;;;;;18;7.9;;;;;;;7.1;78.24707;929.699;;;;
2020/02/10 19:00:58;;;;;;;19.3;7.9;;;;;;;7.03;78.18848;929.7784;;;;
2020/02/10 19:03:26;;;;;;;33.7;12.4;;;;;;;7.04;78.22363;929.7864;;;;
2020/02/10 19:05:53;;;;;;;157.5;82.4;;;;;;;6.94;80.27734;929.6278;;;;
2020/02/10 19:08:22;;;;;;;59;28.4;;;;;;;6.99;80.38965;929.53;;;;
2020/02/10 19:11:21;;;;;;;33.5;13.9;;;;;;;6.86;81.30371;929.4972;;;;
2020/02/10 19:13:51;;;;;;;21.8;9.2;;;;;;;6.8;81.84668;929.3912;;;;
2020/02/10 19:16:31;;;;;;;21.4;8.1;;;;;;;6.67;82.22949;929.4391;;;;
2020/02/10 19:18:55;;;;;;;25.2;7.6;;;;;;;6.68;82.57324;929.5119;;;;
2020/02/10 19:21:18;;;;;;;40.2;10.9;;;;;;;6.75;81.67969;929.5845;;;;
2020/02/10 19:23:45;;;;;;;79.6;57.5;;;;;;;6.78;81.83203;929.6164;;;;
2020/02/10 19:26:16;;;;;;;30.3;11.4;;;;;;;6.84;81.91211;929.675;;;;
2020/02/10 19:28:40;;;;;;;17.3;8.7;;;;;;;6.77;82.92773;929.6378;;;;
2020/02/10 19:31:14;;;;;;;14.9;6.6;;;;;;;6.91;81.88086;929.5064;;;;
2020/02/10 19:34:18;;;;;;;16.1;7.7;;;;;;;6.92;82.4707;929.44;;;;
2020/02/10 19:37:04;;;;;;;14.9;6.1;;;;;;;6.82;83.16309;929.2667;;;;
2020/02/10 19:39:34;;;;;;;12.8;5.7;;;;;;;6.86;82.5166;929.1792;;;;
2020/02/10 19:42:10;;;;;;;13.7;5.5;;;;;;;6.95;82.5459;928.9758;;;;
2020/02/10 19:44:36;;;;;;;15.6;7;;;;;;;7.03;82.48047;928.7209;;;;
2020/02/10 19:46:58;;;;;;;14.2;7.6;;;;;;;7.07;82.39648;928.4847;;;;
2020/02/10 19:49:24;;;;;;;13.9;4.7;;;;;;;6.94;82.63281;928.1906;;;;
2020/02/10 19:51:48;;;;;;;8.7;2.9;;;;;;;6.76;83.59375;928.4241;;;;
2020/02/10 19:54:15;;;;;;;10.5;3.7;;;;;;;6.78;83.35938;928.2194;;;;
2020/02/10 19:56:43;;;;;;;7.3;2.5;;;;;;;6.64;83.19629;928.2317;;;;
2020/02/10 19:59:13;;;;;;;10;2.9;;;;;;;6.63;83.08105;927.9691;;;;
2020/02/10 20:04:08;;;;;;;6.6;2.6;;;;;;;6.77;82.86035;928.027;;;;
2020/02/10 20:06:29;;;;;;;7;2.2;;;;;;;6.73;81.66504;928.0853;;;;
2020/02/10 20:08:52;;;;;;;5.9;1.9;;;;;;;6.57;81.46387;928.1795;;;;
2020/02/10 20:11:26;;;;;;;5.8;1.5;;;;;;;6.54;79.2627;927.9278;;;;
2020/02/10 20:13:50;;;;;;;6.5;1.7;;;;;;;6.79;79.00391;927.748;;;;
2020/02/10 20:16:16;;;;;;;6.9;2.4;;;;;;;6.81;79.95801;928.0692;;;;
2020/02/10 20:18:44;;;;;;;7.2;2.4;;;;;;;6.91;80.13672;928.1747;;;;
2020/02/10 20:21:13;;;;;;;5.9;2.5;;;;;;;6.98;79.67285;928.4228;;;;
2020/02/10 20:23:43;;;;;;;8.4;2.6;;;;;;;7.06;79.90527;928.8867;;;;
2020/02/10 20:26:09;;;;;;;6.5;2.1;;;;;;;7.07;79.84863;928.5496;;;;
2020/02/10 20:28:42;;;;;;;6.6;2.1;;;;;;;6.97;80.45313;928.3911;;;;
2020/02/10 20:31:09;;;;;;;5.3;1.9;;;;;;;6.75;79.78906;928.4454;;;;
2020/02/10 20:33:31;;;;;;;6.5;2.4;;;;;;;6.51;80.76172;927.9995;;;;
2020/02/10 20:35:57;;;;;;;8.2;4.6;;;;;;;6.47;81.44531;927.6245;;;;
2020/02/10 20:38:29;;;;;;;9.6;3.8;;;;;;;6.32;83.02148;927.3795;;;;
2020/02/10 20:40:58;;;;;;;12.8;6.7;;;;;;;6.28;84.11133;927.776;;;;
2020/02/10 20:43:22;;;;;;;9.3;4.2;;;;;;;6.43;83.81348;927.855;;;;
2020/02/10 20:45:54;;;;;;;8.9;2.9;;;;;;;6.27;84.2002;928.0432;;;;
2020/02/10 20:48:26;;;;;;;7.7;3;;;;;;;6.36;83.97852;928.3901;;;;
2020/02/10 20:51:15;;;;;;;8.6;3.4;;;;;;;6.49;83.12402;928.4533;;;;
2020/02/10 20:54:23;;;;;;;7.4;3.4;;;;;;;6.44;83.22656;928.1904;;;;
2020/02/10 20:56:53;;;;;;;8.4;4.2;;;;;;;6.58;83.1875;928.0831;;;;
2020/02/10 20:59:18;;;;;;;10.6;4.1;;;;;;;6.73;82.51367;927.935;;;;
2020/02/10 21:02:14;;;;;;;8.7;3.4;;;;;;;6.44;83.9375;928.1057;;;;
2020/02/10 21:04:45;;;;;;;9.6;3.6;;;;;;;6.16;85.51172;928.2166;;;;
2020/02/10 21:07:22;;;;;;;10.6;3.4;;;;;;;6.19;85.31445;928.3386;;;;
2020/02/10 21:12:38;;;;;;;10.4;4.2;;;;;;;6.37;84.66016;928.1017;;;;
2020/02/10 21:14:50;;;;;;;7.8;3.1;;;;;;;6.46;84.57617;927.8094;;;;
2020/02/10 21:19:33;;;;;;;9.1;3;;;;;;;6.6;84.75;927.4838;;;;
2020/02/10 21:22:33;;;;;;;7.7;3;;;;;;;6.51;85.19824;927.4793;;;;
2020/02/10 21:24:59;;;;;;;5.7;2.4;;;;;;;6.56;84.66406;927.66;;;;
2020/02/10 21:27:48;;;;;;;6.4;2.3;;;;;;;6.57;84.51855;927.7794;;;;
2020/02/10 21:29:48;;;;;;;7;2.3;;;;;;;6.54;84.53613;927.7484;;;;
2020/02/10 21:44:30;;;;;;;5.9;1.8;;;;;;;6.67;81.15625;927.2489;;;;
2020/02/10 21:45:14;;;;;;;9.5;2.1;;;;;;;6.66;81.66211;926.6652;;;;
2020/02/10 21:48:26;;;;;;;7.6;2.2;;;;;;;6.76;80.87793;926.9313;;;;
2020/02/10 21:53:49;;;;;;;7.1;2.2;;;;;;;6.71;79.89551;926.4447;;;;
2020/02/10 21:58:40;;;;;;;5.1;1.7;;;;;;;6.33;80.7959;926.5828;;;;
2020/02/10 22:03:33;;;;;;;6.1;2.1;;;;;;;6.25;82.15039;926.2053;;;;